Time;durP1;ratioP1;P1;durP2;ratioP2;P2;SDS_P1;SDS_P2;PMS_P1;PMS_P2;Temp;Humidity;BMP_temperature;BMP_pressure;BME280_temperature;BME280_humidity;BME280_pressure;Samples;Min_cycle;Max_cycle;Signal;HPM_P1;HPM_P2
2021/06/06 00:01:15;;;;;;;94.90;48.07;;;14.60;95.70;;;;;;5052938;28;20047;-77
2021/06/06 00:03:45;;;;;;;91.17;50.10;;;14.60;95.80;;;;;;5053195;28;20045;-76
2021/06/06 00:06:23;;;;;;;101.23;48.37;;;14.60;95.80;;;;;;5053769;28;20048;-77
2021/06/06 00:08:49;;;;;;;96.20;47.70;;;14.60;95.90;;;;;;5053490;28;20098;-77
2021/06/06 00:11:22;;;;;;;97.77;51.20;;;14.60;95.80;;;;;;5052768;28;20055;-77
2021/06/06 00:13:50;;;;;;;94.90;47.77;;;14.60;95.80;;;;;;5053796;28;20049;-77
2021/06/06 00:16:20;;;;;;;90.67;49.27;;;14.60;95.80;;;;;;5053610;28;20511;-77
2021/06/06 00:18:49;;;;;;;81.27;43.67;;;14.50;95.80;;;;;;5052669;28;20045;-76
2021/06/06 00:21:15;;;;;;;78.17;42.83;;;14.60;96.00;;;;;;5052945;28;20068;-76
2021/06/06 00:23:41;;;;;;;89.43;45.93;;;14.50;95.90;;;;;;5053480;28;20347;-77
2021/06/06 00:26:08;;;;;;;83.87;44.03;;;14.50;95.90;;;;;;5052628;28;20048;-76
2021/06/06 00:28:34;;;;;;;89.50;46.67;;;14.60;96.00;;;;;;5053069;28;20128;-77
2021/06/06 00:31:03;;;;;;;87.97;47.00;;;14.60;96.40;;;;;;5052547;28;20045;-77
2021/06/06 00:33:29;;;;;;;90.50;45.67;;;14.50;96.40;;;;;;5052902;28;20125;-76
2021/06/06 00:35:55;;;;;;;94.77;46.47;;;14.50;96.00;;;;;;5053299;28;20041;-76
2021/06/06 00:38:21;;;;;;;88.17;42.20;;;14.50;96.00;;;;;;5052545;28;20049;-77
2021/06/06 00:40:47;;;;;;;100.70;44.67;;;14.50;96.00;;;;;;5053224;28;20045;-77
2021/06/06 00:43:13;;;;;;;105.20;46.63;;;14.50;96.10;;;;;;5052732;28;20427;-76
2021/06/06 00:45:39;;;;;;;98.63;46.03;;;14.50;96.10;;;;;;5052333;28;20089;-76
2021/06/06 00:48:07;;;;;;;100.20;45.80;;;14.50;96.10;;;;;;5053055;28;20132;-76
2021/06/06 00:50:37;;;;;;;105.53;46.00;;;14.50;96.10;;;;;;5052404;28;20523;-76
2021/06/06 00:53:06;;;;;;;99.17;45.30;;;14.40;96.10;;;;;;5052389;28;20076;-75
2021/06/06 00:55:35;;;;;;;108.73;46.80;;;14.40;96.10;;;;;;5052707;28;20072;-76
2021/06/06 00:58:05;;;;;;;96.50;45.00;;;14.40;96.10;;;;;;5052927;28;20049;-76
2021/06/06 01:00:42;;;;;;;102.03;47.60;;;14.40;96.20;;;;;;5051678;28;20448;-76
2021/06/06 01:03:10;;;;;;;105.00;48.70;;;14.40;96.20;;;;;;5052281;28;20547;-76
2021/06/06 01:05:48;;;;;;;101.07;48.83;;;14.40;96.20;;;;;;5052251;28;20052;-76
2021/06/06 01:08:18;;;;;;;113.57;49.53;;;14.40;96.20;;;;;;5051543;28;20077;-76
2021/06/06 01:10:45;;;;;;;102.67;49.67;;;14.40;96.20;;;;;;5053033;28;20045;-76
2021/06/06 01:13:24;;;;;;;99.73;49.63;;;14.40;96.20;;;;;;5050783;28;20052;-76
2021/06/06 01:16:00;;;;;;;92.17;50.00;;;14.40;96.20;;;;;;5052528;28;20053;-76
2021/06/06 01:18:33;;;;;;;92.83;50.10;;;14.40;96.30;;;;;;5052108;28;20052;-76
2021/06/06 01:21:36;;;;;;;98.63;49.60;;;14.40;96.20;;;;;;5051760;28;20048;-76
2021/06/06 01:24:17;;;;;;;92.83;50.30;;;14.40;96.20;;;;;;5052285;28;20547;-76
2021/06/06 01:26:51;;;;;;;98.38;51.50;;;14.40;96.10;;;;;;5052204;28;20061;-76
2021/06/06 01:29:36;;;;;;;90.30;49.27;;;14.40;96.10;;;;;;5051244;28;20095;-76
2021/06/06 01:32:19;;;;;;;91.67;50.07;;;14.40;96.10;;;;;;5051994;28;20486;-76
2021/06/06 01:34:50;;;;;;;88.30;49.63;;;14.40;96.50;;;;;;5051481;28;20048;-76
2021/06/06 01:37:18;;;;;;;;;;;14.40;96.00;;;;;;5052417;28;20144;-76
2021/06/06 01:39:51;;;;;;;78.87;47.80;;;14.40;96.00;;;;;;5051913;28;19920;-76
2021/06/06 01:42:23;;;;;;;85.87;49.67;;;14.40;95.90;;;;;;5050884;28;20132;-76
2021/06/06 01:44:53;;;;;;;81.67;49.10;;;14.50;95.90;;;;;;5052092;28;20123;-76
2021/06/06 01:47:23;;;;;;;84.53;49.77;;;14.50;95.90;;;;;;5051610;28;20075;-76
2021/06/06 01:49:56;;;;;;;77.50;48.93;;;14.50;95.90;;;;;;5051118;28;20049;-76
2021/06/06 01:52:26;;;;;;;80.10;51.63;;;14.50;95.90;;;;;;5051527;28;20041;-76
2021/06/06 01:54:53;;;;;;;79.07;50.67;;;14.50;95.90;;;;;;5051671;28;20103;-76
2021/06/06 01:57:22;;;;;;;82.83;49.53;;;14.50;95.80;;;;;;5050686;28;20047;-76
2021/06/06 01:59:52;;;;;;;81.13;50.60;;;14.50;95.80;;;;;;5051665;28;20049;-76
2021/06/06 02:02:18;;;;;;;73.93;50.87;;;14.50;95.80;;;;;;5050814;28;20072;-76
2021/06/06 02:04:45;;;;;;;80.30;50.93;;;14.50;95.80;;;;;;5051495;28;20416;-75
2021/06/06 02:07:20;;;;;;;79.23;50.90;;;14.50;95.80;;;;;;5051460;28;20049;-75
2021/06/06 02:10:15;;;;;;;68.70;49.00;;;14.50;95.80;;;;;;5050859;28;20053;-76
2021/06/06 02:12:45;;;;;;;72.73;49.57;;;14.50;95.80;;;;;;5051680;28;20049;-74
2021/06/06 02:15:15;;;;;;;72.13;49.33;;;14.50;95.80;;;;;;5051513;28;20068;-76
2021/06/06 02:17:41;;;;;;;76.07;51.90;;;14.50;95.80;;;;;;5050585;28;20049;-76
2021/06/06 02:20:09;;;;;;;77.73;50.40;;;14.50;95.80;;;;;;5051067;28;20049;-76
2021/06/06 02:22:35;;;;;;;70.20;50.70;;;14.50;95.80;;;;;;5051051;28;20048;-76
2021/06/06 02:25:02;;;;;;;72.60;50.03;;;14.50;95.70;;;;;;5050170;28;20095;-76
2021/06/06 02:27:37;;;;;;;68.47;48.67;;;14.50;95.70;;;;;;5050937;28;20446;-76
2021/06/06 02:30:32;;;;;;;66.67;47.70;;;14.60;95.70;;;;;;5051110;28;20515;-76
2021/06/06 02:33:11;;;;;;;71.83;47.67;;;14.50;95.60;;;;;;5018264;28;20075;-76
2021/06/06 02:36:09;;;;;;;71.87;47.87;;;14.60;95.70;;;;;;5050842;28;20132;-76
2021/06/06 02:38:49;;;;;;;65.40;45.17;;;14.60;95.60;;;;;;5034429;28;20049;-76
2021/06/06 02:41:15;;;;;;;63.47;45.63;;;14.50;95.60;;;;;;5050961;28;20378;-75
2021/06/06 02:44:22;;;;;;;64.90;47.07;;;14.50;95.60;;;;;;5051018;28;20059;-76
2021/06/06 02:46:50;;;;;;;61.40;45.43;;;14.50;95.50;;;;;;5049847;28;20183;-76
2021/06/06 02:49:46;;;;;;;60.33;45.67;;;14.50;95.50;;;;;;5050247;28;20486;-76
2021/06/06 02:52:21;;;;;;;58.97;44.50;;;14.60;95.50;;;;;;5033554;28;20462;-76
2021/06/06 02:55:01;;;;;;;61.07;44.90;;;14.50;95.50;;;;;;5051237;28;20064;-76
2021/06/06 02:57:29;;;;;;;59.27;43.53;;;14.50;95.50;;;;;;5050599;28;20053;-76
2021/06/06 02:59:57;;;;;;;61.57;44.50;;;14.50;95.40;;;;;;5050415;28;20103;-76
2021/06/06 03:02:29;;;;;;;64.13;44.47;;;14.50;95.40;;;;;;5050581;28;20446;-76
2021/06/06 03:05:00;;;;;;;62.58;45.42;;;14.50;95.80;;;;;;5050901;28;20485;-76
2021/06/06 03:07:31;;;;;;;58.25;43.50;;;14.60;95.40;;;;;;5049736;28;20516;-76
2021/06/06 03:09:57;;;;;;;61.63;44.17;;;14.50;95.40;;;;;;5050945;28;20053;-76
2021/06/06 03:12:25;;;;;;;59.67;43.70;;;14.50;95.40;;;;;;5050712;28;20181;-76
2021/06/06 03:14:51;;;;;;;65.27;45.23;;;14.50;95.40;;;;;;5050314;28;20045;-77
2021/06/06 03:17:32;;;;;;;61.10;45.33;;;14.50;95.40;;;;;;5050418;28;20128;-76
2021/06/06 03:20:01;;;;;;;57.80;43.30;;;14.50;95.40;;;;;;5050221;28;20072;-76
2021/06/06 03:22:34;;;;;;;58.80;43.33;;;14.50;95.30;;;;;;5050159;28;20555;-76
2021/06/06 03:25:39;;;;;;;58.47;43.00;;;14.50;95.40;;;;;;5050667;28;20041;-76
2021/06/06 03:28:08;;;;;;;58.07;40.60;;;14.50;95.40;;;;;;4984224;28;20053;-76
2021/06/06 03:30:46;;;;;;;52.97;41.43;;;14.50;95.40;;;;;;5050172;28;20061;-76
2021/06/06 03:33:20;;;;;;;58.20;42.37;;;14.50;95.30;;;;;;5050797;28;20053;-76
2021/06/06 03:35:46;;;;;;;54.97;40.83;;;14.50;95.30;;;;;;5049615;28;20047;-75
2021/06/06 03:38:15;;;;;;;59.13;42.10;;;14.50;95.30;;;;;;5054172;28;20045;-76
2021/06/06 03:40:43;;;;;;;58.93;41.00;;;14.50;95.30;;;;;;5054083;28;20040;-76
2021/06/06 03:43:13;;;;;;;55.53;38.33;;;14.50;95.30;;;;;;5053827;28;20065;-75
2021/06/06 03:45:39;;;;;;;54.30;38.03;;;14.50;95.30;;;;;;5054210;28;20070;-76
2021/06/06 03:48:06;;;;;;;50.87;39.90;;;14.50;95.20;;;;;;5053051;28;20052;-75
2021/06/06 03:50:35;;;;;;;49.37;38.13;;;14.50;95.20;;;;;;5052901;28;20064;-76
2021/06/06 03:53:01;;;;;;;59.83;40.60;;;14.50;95.20;;;;;;5053140;28;20387;-75
2021/06/06 03:55:27;;;;;;;53.17;38.40;;;14.60;95.20;;;;;;5051829;28;20052;-75
2021/06/06 03:57:54;;;;;;;57.50;39.20;;;14.50;95.10;;;;;;5053153;28;20537;-75
2021/06/06 04:00:38;;;;;;;57.83;40.23;;;14.50;95.20;;;;;;5052847;28;20052;-74
2021/06/06 04:03:04;;;;;;;52.60;39.07;;;14.50;95.10;;;;;;5051168;28;20485;-76
2021/06/06 04:05:30;;;;;;;52.10;38.50;;;14.50;95.10;;;;;;5052557;28;20114;-76
2021/06/06 04:07:56;;;;;;;53.13;40.43;;;14.50;95.10;;;;;;5052600;28;20056;-75
2021/06/06 04:10:23;;;;;;;56.70;39.53;;;14.50;95.10;;;;;;5051443;28;20064;-75
2021/06/06 04:12:49;;;;;;;54.60;40.83;;;14.50;95.10;;;;;;5050997;28;20101;-75
2021/06/06 04:15:16;;;;;;;55.70;38.67;;;14.50;95.10;;;;;;5052335;28;20048;-75
2021/06/06 04:17:43;;;;;;;48.90;38.37;;;14.50;95.10;;;;;;5052236;28;20044;-75
2021/06/06 04:20:10;;;;;;;51.43;38.67;;;14.50;95.10;;;;;;5050427;28;20048;-76
2021/06/06 04:22:36;;;;;;;50.10;38.20;;;14.50;95.00;;;;;;5052214;28;20052;-75
2021/06/06 04:25:06;;;;;;;46.33;37.50;;;14.50;95.00;;;;;;5051231;28;20048;-76
2021/06/06 04:27:33;;;;;;;49.33;38.67;;;14.50;94.90;;;;;;5051592;28;20049;-75
2021/06/06 04:30:01;;;;;;;50.77;37.27;;;14.50;94.90;;;;;;5051544;28;20049;-75
2021/06/06 04:32:27;;;;;;;47.00;37.23;;;14.50;94.80;;;;;;5051917;28;20155;-75
2021/06/06 04:34:53;;;;;;;48.83;37.73;;;14.50;94.70;;;;;;5051999;28;20049;-75
2021/06/06 04:37:19;;;;;;;49.43;38.73;;;14.50;94.70;;;;;;5051447;28;20103;-74
2021/06/06 04:39:48;;;;;;;53.20;39.77;;;14.50;94.60;;;;;;5051853;28;20063;-75
2021/06/06 04:42:18;;;;;;;49.27;37.33;;;14.50;94.60;;;;;;5051636;28;20121;-75
2021/06/06 04:44:44;;;;;;;48.13;38.10;;;14.50;94.50;;;;;;5051579;28;20045;-74
2021/06/06 04:47:11;;;;;;;53.00;38.97;;;14.50;94.50;;;;;;5052340;28;20179;-76
2021/06/06 04:49:39;;;;;;;49.47;37.53;;;14.50;94.40;;;;;;5050124;28;20053;-75
2021/06/06 04:52:05;;;;;;;45.17;36.47;;;14.50;94.30;;;;;;5051618;28;20102;-75
2021/06/06 04:54:31;;;;;;;43.50;36.47;;;14.50;94.30;;;;;;5051543;28;20063;-75
2021/06/06 04:56:57;;;;;;;47.53;34.47;;;14.50;94.20;;;;;;5052551;28;20049;-74
2021/06/06 04:59:23;;;;;;;43.73;34.10;;;14.50;94.20;;;;;;5051787;28;20040;-74
2021/06/06 05:01:48;;;;;;;42.87;34.13;;;14.50;94.00;;;;;;5052802;28;20445;-74
2021/06/06 05:04:15;;;;;;;42.27;34.40;;;14.50;93.90;;;;;;5052384;28;20064;-74
2021/06/06 05:06:41;;;;;;;44.63;32.73;;;14.50;93.80;;;;;;5051833;28;20056;-73
2021/06/06 05:09:07;;;;;;;41.73;33.50;;;14.50;93.80;;;;;;5052766;28;20402;-73
2021/06/06 05:11:33;;;;;;;41.97;33.27;;;14.50;93.70;;;;;;5052551;28;20120;-75
2021/06/06 05:14:00;;;;;;;43.87;33.17;;;14.50;93.70;;;;;;5051764;28;20516;-75
2021/06/06 05:16:26;;;;;;;43.20;31.23;;;14.50;93.70;;;;;;5052577;28;20386;-76
2021/06/06 05:18:54;;;;;;;39.90;31.20;;;14.50;94.10;;;;;;5052750;28;20080;-75
2021/06/06 05:21:20;;;;;;;42.60;31.57;;;14.50;93.70;;;;;;5051058;28;20090;-75
2021/06/06 05:23:46;;;;;;;43.20;31.87;;;14.50;93.70;;;;;;5052718;28;20057;-75
2021/06/06 05:26:12;;;;;;;46.03;35.57;;;14.50;93.70;;;;;;5051994;28;20533;-74
2021/06/06 05:28:38;;;;;;;45.43;34.77;;;14.50;93.70;;;;;;5051927;28;20476;-75
2021/06/06 05:31:06;;;;;;;49.00;34.67;;;14.50;93.80;;;;;;5052462;28;20171;-76
2021/06/06 05:33:32;;;;;;;50.43;33.30;;;14.50;93.90;;;;;;5051375;28;20045;-76
2021/06/06 05:35:57;;;;;;;40.80;30.87;;;14.50;93.90;;;;;;5052488;28;20060;-74
2021/06/06 05:38:25;;;;;;;43.43;31.13;;;14.50;93.90;;;;;;5052225;28;20440;-76
2021/06/06 05:40:51;;;;;;;42.53;31.87;;;14.50;93.90;;;;;;5051891;28;20118;-76
2021/06/06 05:43:18;;;;;;;44.00;32.03;;;14.50;93.90;;;;;;5052150;28;20520;-76
2021/06/06 05:45:46;;;;;;;48.37;33.03;;;14.50;93.90;;;;;;5051954;28;20041;-74
2021/06/06 05:48:12;;;;;;;44.77;30.63;;;14.50;93.90;;;;;;5051309;28;20073;-75
2021/06/06 05:50:42;;;;;;;47.70;30.97;;;14.50;93.90;;;;;;5051957;28;20468;-75
2021/06/06 05:53:09;;;;;;;46.77;32.47;;;14.50;93.90;;;;;;5052287;28;20200;-73
2021/06/06 05:55:35;;;;;;;48.13;30.10;;;14.50;93.90;;;;;;5051283;28;20088;-74
2021/06/06 05:58:01;;;;;;;45.03;28.90;;;14.40;94.00;;;;;;5052211;28;20053;-75
2021/06/06 06:00:34;;;;;;;43.83;29.00;;;14.50;94.10;;;;;;5051347;28;20049;-75
2021/06/06 06:03:00;;;;;;;41.27;27.10;;;14.50;94.10;;;;;;5050849;28;20049;-75
2021/06/06 06:05:26;;;;;;;45.93;29.70;;;14.50;94.10;;;;;;5051610;28;20063;-74
2021/06/06 06:07:52;;;;;;;48.87;29.23;;;14.50;94.10;;;;;;5051616;28;20358;-75
2021/06/06 06:10:26;;;;;;;47.47;29.23;;;14.50;94.10;;;;;;5050874;28;20457;-74
2021/06/06 06:12:51;;;;;;;48.47;28.90;;;14.50;94.10;;;;;;5052095;28;20143;-75
2021/06/06 06:15:17;;;;;;;46.50;27.93;;;14.50;94.20;;;;;;5051120;28;20064;-74
2021/06/06 06:17:43;;;;;;;43.73;27.67;;;14.50;94.70;;;;;;5051205;28;20049;-75
2021/06/06 06:20:12;;;;;;;48.30;27.80;;;14.50;94.20;;;;;;5051415;28;20068;-74
2021/06/06 06:22:38;;;;;;;43.10;28.60;;;14.50;94.30;;;;;;5050766;28;20136;-74
2021/06/06 06:25:05;;;;;;;46.20;27.60;;;14.50;94.30;;;;;;5051470;28;20119;-75
2021/06/06 06:27:33;;;;;;;45.83;28.27;;;14.50;94.30;;;;;;5050814;28;20454;-75
2021/06/06 06:29:59;;;;;;;46.50;27.80;;;14.50;94.20;;;;;;5050765;28;20049;-75
2021/06/06 06:32:27;;;;;;;52.73;30.40;;;14.50;94.20;;;;;;5051117;28;20049;-76
2021/06/06 06:34:53;;;;;;;49.80;28.53;;;14.50;94.30;;;;;;5051318;28;20049;-75
2021/06/06 06:37:21;;;;;;;55.93;30.87;;;14.50;94.30;;;;;;5050134;28;20132;-75
2021/06/06 06:39:48;;;;;;;57.07;30.30;;;14.50;94.40;;;;;;5051302;28;20127;-74
2021/06/06 06:42:13;;;;;;;53.30;30.03;;;14.50;94.50;;;;;;5050916;28;20045;-75
2021/06/06 06:44:39;;;;;;;55.10;30.00;;;14.50;94.50;;;;;;5050535;28;20059;-74
2021/06/06 06:47:05;;;;;;;50.67;29.53;;;14.50;94.50;;;;;;5051326;28;20230;-74
2021/06/06 06:49:34;;;;;;;56.53;29.67;;;14.60;94.60;;;;;;5050594;28;20063;-75
2021/06/06 06:51:59;;;;;;;55.00;29.83;;;14.60;94.60;;;;;;5050403;28;20040;-73
2021/06/06 06:54:25;;;;;;;52.10;29.07;;;14.60;94.70;;;;;;5050678;28;20582;-75
2021/06/06 06:56:51;;;;;;;55.23;27.60;;;14.50;94.70;;;;;;5050868;28;20107;-74
2021/06/06 06:59:16;;;;;;;58.00;28.87;;;14.60;94.80;;;;;;5049953;28;20052;-75
2021/06/06 07:01:42;;;;;;;48.17;27.97;;;14.50;94.80;;;;;;5050739;28;20060;-75
2021/06/06 07:04:08;;;;;;;46.13;27.33;;;14.50;94.90;;;;;;5050690;28;20089;-75
2021/06/06 07:06:34;;;;;;;46.30;26.80;;;14.60;95.00;;;;;;5049940;28;20057;-74
2021/06/06 07:09:00;;;;;;;44.77;24.93;;;14.60;95.00;;;;;;5050505;28;20053;-75
2021/06/06 07:11:26;;;;;;;47.10;26.40;;;14.50;94.90;;;;;;5051411;28;20055;-75
2021/06/06 07:13:52;;;;;;;44.17;25.23;;;14.60;95.00;;;;;;5054108;28;20409;-75
2021/06/06 07:16:20;;;;;;;44.23;26.70;;;14.60;95.00;;;;;;5054210;28;20045;-75
2021/06/06 07:18:46;;;;;;;40.63;25.13;;;14.60;95.10;;;;;;5054289;28;20118;-74
2021/06/06 07:21:19;;;;;;;38.80;23.87;;;14.50;95.10;;;;;;5054675;28;20049;-75
2021/06/06 07:23:45;;;;;;;40.73;24.70;;;14.50;95.10;;;;;;5054640;28;20504;-74
2021/06/06 07:26:18;;;;;;;42.10;25.27;;;14.50;95.10;;;;;;5053709;28;20080;-74
2021/06/06 07:29:02;;;;;;;41.93;23.50;;;14.50;95.10;;;;;;5054408;28;20095;-74
2021/06/06 07:31:29;;;;;;;35.20;22.33;;;14.50;95.10;;;;;;5054325;28;20049;-74
2021/06/06 07:33:55;;;;;;;37.63;23.50;;;14.50;95.20;;;;;;5053333;28;20099;-74
2021/06/06 07:36:21;;;;;;;35.53;23.07;;;14.50;95.20;;;;;;5053742;28;20045;-73
2021/06/06 07:39:07;;;;;;;32.40;22.37;;;14.40;95.20;;;;;;5039458;28;20071;-74
2021/06/06 07:41:33;;;;;;;34.07;22.87;;;14.50;95.20;;;;;;5053321;28;20045;-75
2021/06/06 07:43:59;;;;;;;38.90;24.00;;;14.50;95.20;;;;;;5054421;28;20359;-75
2021/06/06 07:46:25;;;;;;;42.00;25.20;;;14.50;95.20;;;;;;5053604;28;20055;-75
2021/06/06 07:48:52;;;;;;;46.77;26.20;;;14.50;95.30;;;;;;5053006;28;20489;-75
2021/06/06 07:51:21;;;;;;;59.87;31.37;;;14.50;95.40;;;;;;5053569;28;20053;-75
2021/06/06 07:53:49;;;;;;;61.70;33.20;;;14.50;95.40;;;;;;5054207;28;20045;-75
2021/06/06 07:56:15;;;;;;;72.60;36.27;;;14.50;95.40;;;;;;5053143;28;20083;-76
2021/06/06 07:58:41;;;;;;;64.07;34.90;;;14.50;95.40;;;;;;5053978;28;20068;-75
2021/06/06 08:01:10;;;;;;;70.67;38.00;;;14.50;95.50;;;;;;5053593;28;20464;-73
2021/06/06 08:03:36;;;;;;;62.30;36.50;;;14.50;95.50;;;;;;5053080;28;20049;-74
2021/06/06 08:06:04;;;;;;;57.20;35.23;;;14.50;95.50;;;;;;5052749;28;20045;-74
2021/06/06 08:08:30;;;;;;;55.43;35.67;;;14.50;95.60;;;;;;5049298;28;20068;-74
2021/06/06 08:11:02;;;;;;;55.80;35.30;;;14.50;95.60;;;;;;5052831;28;20037;-75
2021/06/06 08:13:28;;;;;;;53.97;34.47;;;14.50;95.60;;;;;;5052203;28;20055;-75
2021/06/06 08:15:56;;;;;;;60.17;37.37;;;14.50;95.50;;;;;;5051458;28;20045;-75
2021/06/06 08:18:27;;;;;;;59.20;37.30;;;14.40;95.60;;;;;;5051948;28;20072;-75
2021/06/06 08:21:07;;;;;;;66.53;40.33;;;14.40;95.70;;;;;;5049985;28;20067;-73
2021/06/06 08:23:34;;;;;;;57.03;36.87;;;14.40;95.70;;;;;;5048857;28;20135;-74
2021/06/06 08:26:01;;;;;;;59.67;38.43;;;14.30;95.70;;;;;;5052212;28;20048;-75
2021/06/06 08:28:28;;;;;;;58.90;38.83;;;14.40;95.70;;;;;;5051641;28;20087;-74
2021/06/06 08:31:07;;;;;;;60.00;37.57;;;14.40;95.80;;;;;;5051355;28;20128;-74
2021/06/06 08:33:34;;;;;;;56.43;37.20;;;14.40;95.80;;;;;;5051183;28;20461;-72
2021/06/06 08:36:11;;;;;;;53.53;37.23;;;14.40;95.80;;;;;;5052469;28;20041;-73
2021/06/06 08:38:38;;;;;;;53.53;34.40;;;14.40;95.80;;;;;;5051011;28;20517;-73
2021/06/06 08:41:14;;;;;;;50.83;35.73;;;14.40;95.70;;;;;;5052368;28;20048;-72
2021/06/06 08:44:01;;;;;;;48.07;33.00;;;14.40;95.70;;;;;;5048792;28;20056;-73
2021/06/06 08:46:32;;;;;;;48.40;33.77;;;14.40;95.70;;;;;;5050015;28;20049;-72
2021/06/06 08:48:58;;;;;;;58.83;36.47;;;14.40;95.70;;;;;;5049511;28;20444;-73
2021/06/06 08:51:38;;;;;;;49.80;34.43;;;14.40;95.60;;;;;;5050967;28;20049;-74
2021/06/06 08:54:29;;;;;;;48.20;33.83;;;14.40;95.70;;;;;;5049961;28;20048;-74
2021/06/06 08:57:01;;;;;;;47.70;30.47;;;14.40;95.70;;;;;;5051645;28;20041;-74
2021/06/06 08:59:36;;;;;;;41.27;29.70;;;14.40;95.70;;;;;;5051108;28;20052;-73
2021/06/06 09:02:26;;;;;;;32.90;25.27;;;14.50;95.80;;;;;;5049652;28;20496;-74
2021/06/06 09:04:53;;;;;;;32.60;25.50;;;14.50;95.80;;;;;;5049845;28;20049;-75
2021/06/06 09:07:28;;;;;;;38.40;25.53;;;14.50;95.80;;;;;;5049077;28;20049;-74
2021/06/06 09:09:58;;;;;;;34.97;23.17;;;14.50;95.80;;;;;;5051273;28;20053;-74
2021/06/06 09:12:25;;;;;;;34.20;23.00;;;14.60;95.80;;;;;;5050059;28;20049;-75
2021/06/06 09:14:54;;;;;;;36.53;23.87;;;14.60;95.80;;;;;;5048937;28;20071;-76
2021/06/06 09:17:36;;;;;;;32.97;21.77;;;14.70;95.80;;;;;;5051426;28;20095;-76
2021/06/06 09:20:07;;;;;;;30.00;21.33;;;14.70;96.20;;;;;;5049333;28;20458;-73
2021/06/06 09:22:40;;;;;;;33.20;21.60;;;14.70;95.80;;;;;;5048206;28;20045;-72
2021/06/06 09:25:33;;;;;;;34.03;22.60;;;14.70;95.80;;;;;;5050951;28;20049;-73
2021/06/06 09:28:21;;;;;;;29.57;20.43;;;14.70;95.80;;;;;;5049313;28;20055;-71
2021/06/06 09:31:00;;;;;;;31.47;20.00;;;14.70;95.60;;;;;;5050282;28;20048;-73
2021/06/06 09:33:34;;;;;;;26.90;17.27;;;14.80;95.60;;;;;;5049878;28;20409;-71
2021/06/06 09:36:16;;;;;;;26.60;20.13;;;14.80;95.50;;;;;;5050815;28;20152;-73
2021/06/06 09:38:44;;;;;;;24.83;20.10;;;14.70;95.40;;;;;;5049883;28;20052;-73
2021/06/06 09:41:33;;;;;;;29.93;20.63;;;14.70;95.40;;;;;;5049993;28;20041;-72
2021/06/06 09:44:14;;;;;;;28.53;20.03;;;14.70;95.50;;;;;;5048869;28;20075;-73
2021/06/06 09:46:46;;;;;;;25.30;19.30;;;14.70;95.60;;;;;;5048580;28;20123;-73
2021/06/06 09:49:23;;;;;;;24.53;18.00;;;14.80;95.70;;;;;;5047526;28;20493;-74
2021/06/06 09:51:51;;;;;;;19.07;14.40;;;14.80;95.70;;;;;;5050274;28;20132;-73
2021/06/06 09:54:26;;;;;;;17.67;14.53;;;14.90;95.60;;;;;;5049169;28;20045;-74
2021/06/06 09:56:55;;;;;;;18.87;13.90;;;14.90;95.40;;;;;;5048788;28;20128;-73
2021/06/06 09:59:39;;;;;;;13.77;11.50;;;14.90;95.40;;;;;;5050917;28;20048;-73
2021/06/06 10:02:11;;;;;;;14.70;13.03;;;15.00;95.70;;;;;;5049407;28;20045;-73
2021/06/06 10:04:39;;;;;;;18.38;13.52;;;15.00;95.20;;;;;;5048569;28;20070;-74
2021/06/06 10:07:25;;;;;;;16.10;14.37;;;15.00;95.10;;;;;;5049988;28;20071;-73
2021/06/06 10:09:55;;;;;;;15.33;13.77;;;15.00;95.10;;;;;;5049520;28;20493;-71
2021/06/06 10:12:39;;;;;;;15.30;13.67;;;14.90;95.20;;;;;;5045674;28;20493;-71
2021/06/06 10:15:17;;;;;;;14.97;13.40;;;15.00;95.20;;;;;;5048627;28;20401;-74
2021/06/06 10:17:57;;;;;;;18.10;13.53;;;15.00;95.20;;;;;;5049267;28;20037;-71
2021/06/06 10:20:31;;;;;;;12.90;11.07;;;15.10;95.30;;;;;;5049148;28;20049;-70
2021/06/06 10:23:15;;;;;;;11.63;10.43;;;15.20;95.20;;;;;;5049889;28;20443;-73
2021/06/06 10:26:14;;;;;;;13.77;9.83;;;15.30;95.10;;;;;;5050444;28;20080;-72
2021/06/06 10:28:48;;;;;;;10.93;9.73;;;15.40;94.80;;;;;;5049764;28;20052;-73
2021/06/06 10:31:23;;;;;;;10.83;9.17;;;15.40;94.80;;;;;;5048392;28;20234;-75
2021/06/06 10:34:12;;;;;;;11.43;9.30;;;15.50;94.70;;;;;;5047939;28;20045;-72
2021/06/06 10:36:40;;;;;;;9.60;8.30;;;15.50;94.50;;;;;;5048530;28;20056;-71
2021/06/06 10:39:14;;;;;;;7.93;7.13;;;15.60;94.50;;;;;;5050234;28;20053;-72
2021/06/06 10:41:50;;;;;;;10.23;8.37;;;15.70;94.20;;;;;;5050139;28;20517;-70
2021/06/06 10:44:16;;;;;;;10.40;8.70;;;15.70;94.00;;;;;;5047865;28;20068;-70
2021/06/06 10:46:50;;;;;;;10.00;9.00;;;15.70;93.90;;;;;;5053375;28;20428;-72
2021/06/06 10:49:30;;;;;;;9.73;8.23;;;15.70;93.90;;;;;;5054225;28;20053;-70
2021/06/06 10:52:01;;;;;;;10.37;9.27;;;15.70;93.90;;;;;;5051388;28;20041;-71
2021/06/06 10:54:36;;;;;;;10.55;9.50;;;15.70;93.80;;;;;;5054216;28;20059;-71
2021/06/06 10:57:13;;;;;;;10.17;9.10;;;15.60;93.90;;;;;;5052102;28;20098;-72
2021/06/06 10:59:41;;;;;;;11.03;7.90;;;15.60;93.90;;;;;;5052454;28;20065;-71
2021/06/06 11:02:11;;;;;;;10.33;8.53;;;15.60;93.90;;;;;;5054161;28;20128;-70
2021/06/06 11:04:53;;;;;;;9.33;8.27;;;15.50;93.70;;;;;;5051232;28;20049;-71
2021/06/06 11:07:19;;;;;;;8.80;7.97;;;15.40;93.90;;;;;;5054089;28;20060;-72
2021/06/06 11:10:06;;;;;;;9.33;8.43;;;15.40;94.00;;;;;;5054071;28;20363;-71
2021/06/06 11:12:35;;;;;;;8.07;7.27;;;15.40;94.20;;;;;;5052895;28;20044;-72
2021/06/06 11:15:33;;;;;;;6.90;6.20;;;15.50;94.20;;;;;;5050917;28;20554;-72
2021/06/06 11:18:17;;;;;;;7.37;5.70;;;15.50;94.10;;;;;;5052832;28;20167;-71
2021/06/06 11:20:55;;;;;;;5.63;4.90;;;15.40;94.10;;;;;;5050776;28;20413;-72
2021/06/06 11:23:54;;;;;;;4.60;4.20;;;15.40;94.30;;;;;;5051480;28;20041;-74
2021/06/06 11:26:31;;;;;;;5.00;4.07;;;15.50;94.20;;;;;;5052371;28;20045;-74
2021/06/06 11:29:06;;;;;;;4.10;3.67;;;15.50;94.20;;;;;;5054099;28;20438;-74
2021/06/06 11:31:35;;;;;;;5.07;4.57;;;15.50;94.30;;;;;;5051929;28;20053;-73
2021/06/06 11:34:05;;;;;;;5.97;5.13;;;15.50;94.30;;;;;;5052505;28;20041;-70
2021/06/06 11:36:36;;;;;;;5.50;5.00;;;15.60;94.30;;;;;;5051974;28;20086;-72
2021/06/06 11:39:09;;;;;;;;;;;15.60;94.30;;;;;;5053059;28;20130;-73
2021/06/06 11:41:38;;;;;;;5.40;4.47;;;15.60;94.20;;;;;;5051560;28;20365;-72
2021/06/06 11:44:21;;;;;;;4.90;4.13;;;15.60;94.50;;;;;;5052723;28;20040;-74
2021/06/06 11:46:54;;;;;;;3.97;3.57;;;15.70;94.30;;;;;;5052505;28;20151;-73
2021/06/06 11:49:34;;;;;;;4.63;3.60;;;15.70;94.40;;;;;;5052850;28;20048;-74
2021/06/06 11:52:36;;;;;;;3.60;3.30;;;15.80;94.30;;;;;;5053394;28;20115;-71
2021/06/06 11:55:13;;;;;;;4.17;3.77;;;15.80;94.00;;;;;;5052622;28;20051;-72
2021/06/06 11:57:42;;;;;;;4.13;3.73;;;15.80;93.90;;;;;;5051727;28;20102;-72
2021/06/06 12:00:35;;;;;;;4.20;3.77;;;15.80;93.90;;;;;;5051948;28;20132;-74
2021/06/06 12:03:12;;;;;;;4.87;4.30;;;15.80;94.00;;;;;;5052874;28;20044;-74
2021/06/06 12:05:49;;;;;;;6.30;3.83;;;15.80;94.00;;;;;;5053100;28;20048;-74
2021/06/06 12:08:14;;;;;;;4.87;4.37;;;15.90;93.90;;;;;;5052446;28;20107;-74
2021/06/06 12:10:57;;;;;;;5.20;4.30;;;15.80;93.90;;;;;;5053003;28;20497;-73
2021/06/06 12:13:27;;;;;;;6.77;6.17;;;15.80;93.70;;;;;;5053219;28;20068;-74
2021/06/06 12:16:13;;;;;;;7.80;7.03;;;15.70;93.90;;;;;;5052483;28;20099;-74
2021/06/06 12:18:42;;;;;;;8.03;7.33;;;15.70;94.00;;;;;;5053368;28;20045;-72
2021/06/06 12:21:23;;;;;;;8.67;7.87;;;15.70;94.00;;;;;;5053144;28;20549;-74
2021/06/06 12:24:18;;;;;;;10.90;8.80;;;15.70;93.90;;;;;;5053463;28;20110;-74
2021/06/06 12:26:52;;;;;;;10.03;9.03;;;15.70;93.80;;;;;;5052981;28;20076;-75
2021/06/06 12:29:27;;;;;;;9.30;8.40;;;15.60;93.80;;;;;;5051784;28;20105;-74
2021/06/06 12:31:53;;;;;;;9.47;8.57;;;15.60;93.80;;;;;;5053487;28;20048;-75
2021/06/06 12:34:30;;;;;;;12.33;9.07;;;15.60;93.70;;;;;;5052760;28;20053;-75
2021/06/06 12:37:06;;;;;;;9.27;8.37;;;15.60;93.70;;;;;;5051865;28;20075;-76
2021/06/06 12:39:36;;;;;;;10.30;9.23;;;15.60;94.10;;;;;;5052867;28;20114;-75
2021/06/06 12:42:05;;;;;;;9.40;8.37;;;15.60;93.70;;;;;;5053237;28;20051;-74
2021/06/06 12:44:35;;;;;;;10.33;8.37;;;15.60;93.70;;;;;;5051801;28;20501;-75
2021/06/06 12:47:20;;;;;;;10.27;8.17;;;15.60;93.60;;;;;;5052839;28;20464;-75
2021/06/06 12:50:00;;;;;;;9.30;8.00;;;15.60;93.60;;;;;;5052115;28;20132;-75
2021/06/06 12:52:57;;;;;;;7.43;6.63;;;15.50;93.50;;;;;;5052239;28;20049;-75
2021/06/06 12:55:28;;;;;;;9.40;7.10;;;15.50;93.40;;;;;;5051858;28;20485;-74